sensor_id;sensor_type;location;lat;lon;timestamp;pressure;altitude;pressure_sealevel;temperature
51149;BMP280;37210;50.058;8.688;2022-08-19T00:01:35;99763.22;;;24.70
51149;BMP280;37210;50.058;8.688;2022-08-19T00:04:10;99781.28;;;24.80
51149;BMP280;37210;50.058;8.688;2022-08-19T00:06:42;99778.69;;;24.79
51149;BMP280;37210;50.058;8.688;2022-08-19T00:09:13;99747.56;;;24.23
51149;BMP280;37210;50.058;8.688;2022-08-19T00:11:43;99774.66;;;24.31
51149;BMP280;37210;50.058;8.688;2022-08-19T00:14:14;99765.66;;;24.46
51149;BMP280;37210;50.058;8.688;2022-08-19T00:16:45;99752.13;;;24.35
51149;BMP280;37210;50.058;8.688;2022-08-19T00:19:15;99752.09;;;24.49
51149;BMP280;37210;50.058;8.688;2022-08-19T00:21:43;99753.56;;;24.40
51149;BMP280;37210;50.058;8.688;2022-08-19T00:24:13;99752.16;;;24.61
51149;BMP280;37210;50.058;8.688;2022-08-19T00:26:42;99734.03;;;24.52
51149;BMP280;37210;50.058;8.688;2022-08-19T00:29:12;99748.78;;;24.72
51149;BMP280;37210;50.058;8.688;2022-08-19T00:31:42;99747.94;;;24.98
51149;BMP280;37210;50.058;8.688;2022-08-19T00:34:10;99731.63;;;24.62
51149;BMP280;37210;50.058;8.688;2022-08-19T00:36:41;99751.75;;;24.82
51149;BMP280;37210;50.058;8.688;2022-08-19T00:39:10;99729.19;;;24.86
51149;BMP280;37210;50.058;8.688;2022-08-19T00:41:39;99746.50;;;24.80
51149;BMP280;37210;50.058;8.688;2022-08-19T00:44:09;99735.56;;;24.56
51149;BMP280;37210;50.058;8.688;2022-08-19T00:46:43;99695.09;;;24.48
51149;BMP280;37210;50.058;8.688;2022-08-19T00:49:15;99737.06;;;24.60
51149;BMP280;37210;50.058;8.688;2022-08-19T00:51:50;99731.03;;;24.30
51149;BMP280;37210;50.058;8.688;2022-08-19T00:54:23;99743.69;;;24.55
51149;BMP280;37210;50.058;8.688;2022-08-19T00:56:51;99737.94;;;24.61
51149;BMP280;37210;50.058;8.688;2022-08-19T00:59:19;99714.84;;;24.19
51149;BMP280;37210;50.058;8.688;2022-08-19T01:01:49;99693.25;;;24.22
51149;BMP280;37210;50.058;8.688;2022-08-19T01:04:16;99620.38;;;23.92
51149;BMP280;37210;50.058;8.688;2022-08-19T01:06:44;99691.69;;;24.32
51149;BMP280;37210;50.058;8.688;2022-08-19T01:09:13;99622.09;;;23.93
51149;BMP280;37210;50.058;8.688;2022-08-19T01:11:43;99661.28;;;24.21
51149;BMP280;37210;50.058;8.688;2022-08-19T01:14:12;99691.31;;;24.38
51149;BMP280;37210;50.058;8.688;2022-08-19T01:16:41;99697.50;;;24.39
51149;BMP280;37210;50.058;8.688;2022-08-19T01:19:13;99666.81;;;24.18
51149;BMP280;37210;50.058;8.688;2022-08-19T01:21:51;99634.59;;;24.07
51149;BMP280;37210;50.058;8.688;2022-08-19T01:24:24;99697.19;;;24.43
51149;BMP280;37210;50.058;8.688;2022-08-19T01:26:52;99719.09;;;24.63
51149;BMP280;37210;50.058;8.688;2022-08-19T01:29:20;99718.66;;;24.56
51149;BMP280;37210;50.058;8.688;2022-08-19T01:31:49;99716.38;;;24.91
51149;BMP280;37210;50.058;8.688;2022-08-19T01:34:19;99681.56;;;24.78
51149;BMP280;37210;50.058;8.688;2022-08-19T01:36:47;99713.94;;;24.59
51149;BMP280;37210;50.058;8.688;2022-08-19T01:39:20;99649.38;;;24.39
51149;BMP280;37210;50.058;8.688;2022-08-19T01:41:51;99707.19;;;24.54
51149;BMP280;37210;50.058;8.688;2022-08-19T01:44:20;99674.06;;;24.02
51149;BMP280;37210;50.058;8.688;2022-08-19T01:46:51;99590.38;;;23.74
51149;BMP280;37210;50.058;8.688;2022-08-19T01:49:27;99623.38;;;23.73
51149;BMP280;37210;50.058;8.688;2022-08-19T01:51:55;99657.56;;;24.23
51149;BMP280;37210;50.058;8.688;2022-08-19T01:54:24;99686.16;;;24.35
51149;BMP280;37210;50.058;8.688;2022-08-19T01:57:00;99653.84;;;24.12
51149;BMP280;37210;50.058;8.688;2022-08-19T01:59:31;99633.44;;;24.11
51149;BMP280;37210;50.058;8.688;2022-08-19T02:02:03;99670.13;;;24.35
51149;BMP280;37210;50.058;8.688;2022-08-19T02:04:33;99730.84;;;24.60
51149;BMP280;37210;50.058;8.688;2022-08-19T02:07:01;99617.81;;;23.91
51149;BMP280;37210;50.058;8.688;2022-08-19T02:09:30;99636.59;;;24.17
51149;BMP280;37210;50.058;8.688;2022-08-19T02:12:00;99714.34;;;24.53
51149;BMP280;37210;50.058;8.688;2022-08-19T02:14:27;99710.75;;;24.54
51149;BMP280;37210;50.058;8.688;2022-08-19T02:16:55;99725.25;;;24.50
51149;BMP280;37210;50.058;8.688;2022-08-19T02:19:22;99732.38;;;24.23
51149;BMP280;37210;50.058;8.688;2022-08-19T02:21:50;99729.75;;;24.09
51149;BMP280;37210;50.058;8.688;2022-08-19T02:24:20;99655.97;;;23.78
51149;BMP280;37210;50.058;8.688;2022-08-19T02:26:51;99675.44;;;23.95
51149;BMP280;37210;50.058;8.688;2022-08-19T02:29:20;99744.63;;;24.13
51149;BMP280;37210;50.058;8.688;2022-08-19T02:31:50;99665.72;;;23.79
51149;BMP280;37210;50.058;8.688;2022-08-19T02:34:17;99647.56;;;23.84
51149;BMP280;37210;50.058;8.688;2022-08-19T02:36:45;99714.06;;;24.17
51149;BMP280;37210;50.058;8.688;2022-08-19T02:39:12;99737.63;;;24.25
51149;BMP280;37210;50.058;8.688;2022-08-19T02:41:39;99741.31;;;24.50
51149;BMP280;37210;50.058;8.688;2022-08-19T02:44:07;99734.84;;;24.40
51149;BMP280;37210;50.058;8.688;2022-08-19T02:46:36;99680.84;;;23.93
51149;BMP280;37210;50.058;8.688;2022-08-19T02:49:06;99740.00;;;24.29
51149;BMP280;37210;50.058;8.688;2022-08-19T02:51:39;99737.84;;;24.08
51149;BMP280;37210;50.058;8.688;2022-08-19T02:54:09;99737.63;;;24.25
51149;BMP280;37210;50.058;8.688;2022-08-19T02:56:39;99642.72;;;23.77
51149;BMP280;37210;50.058;8.688;2022-08-19T02:59:10;99729.34;;;24.15
51149;BMP280;37210;50.058;8.688;2022-08-19T03:01:41;99699.47;;;23.38
51149;BMP280;37210;50.058;8.688;2022-08-19T03:04:11;99654.41;;;23.18
51149;BMP280;37210;50.058;8.688;2022-08-19T03:06:44;99692.59;;;23.76
51149;BMP280;37210;50.058;8.688;2022-08-19T03:09:13;99731.22;;;23.99
51149;BMP280;37210;50.058;8.688;2022-08-19T03:11:42;99716.94;;;24.00
51149;BMP280;37210;50.058;8.688;2022-08-19T03:14:10;99725.03;;;23.99
51149;BMP280;37210;50.058;8.688;2022-08-19T03:16:43;99658.09;;;23.73
51149;BMP280;37210;50.058;8.688;2022-08-19T03:19:13;99741.75;;;24.16
51149;BMP280;37210;50.058;8.688;2022-08-19T03:21:43;99689.94;;;23.48
51149;BMP280;37210;50.058;8.688;2022-08-19T03:24:12;99694.34;;;23.63
51149;BMP280;37210;50.058;8.688;2022-08-19T03:26:46;99676.28;;;23.39
51149;BMP280;37210;50.058;8.688;2022-08-19T03:29:18;99700.72;;;23.61
51149;BMP280;37210;50.058;8.688;2022-08-19T03:31:48;99751.72;;;23.84
51149;BMP280;37210;50.058;8.688;2022-08-19T03:34:21;99696.31;;;23.46
51149;BMP280;37210;50.058;8.688;2022-08-19T03:36:55;99656.38;;;23.44
51149;BMP280;37210;50.058;8.688;2022-08-19T03:39:29;99747.75;;;24.06
51149;BMP280;37210;50.058;8.688;2022-08-19T03:41:56;99761.38;;;23.87
51149;BMP280;37210;50.058;8.688;2022-08-19T03:44:29;99666.09;;;23.45
51149;BMP280;37210;50.058;8.688;2022-08-19T03:46:59;99753.59;;;24.12
51149;BMP280;37210;50.058;8.688;2022-08-19T03:49:29;99646.16;;;23.37
51149;BMP280;37210;50.058;8.688;2022-08-19T03:52:00;99680.41;;;23.44
51149;BMP280;37210;50.058;8.688;2022-08-19T03:54:31;99688.03;;;23.50
51149;BMP280;37210;50.058;8.688;2022-08-19T03:56:58;99652.75;;;23.45
51149;BMP280;37210;50.058;8.688;2022-08-19T03:59:34;99724.84;;;23.88
51149;BMP280;37210;50.058;8.688;2022-08-19T04:02:09;99712.75;;;23.82
51149;BMP280;37210;50.058;8.688;2022-08-19T04:04:40;99679.16;;;23.64
51149;BMP280;37210;50.058;8.688;2022-08-19T04:07:13;99705.13;;;23.76
51149;BMP280;37210;50.058;8.688;2022-08-19T04:09:47;99762.78;;;23.78
51149;BMP280;37210;50.058;8.688;2022-08-19T04:12:15;99760.44;;;24.02
51149;BMP280;37210;50.058;8.688;2022-08-19T04:14:43;99766.06;;;23.98
51149;BMP280;37210;50.058;8.688;2022-08-19T04:17:12;99742.09;;;23.68
51149;BMP280;37210;50.058;8.688;2022-08-19T04:19:40;99742.78;;;23.71
51149;BMP280;37210;50.058;8.688;2022-08-19T04:22:09;99763.22;;;24.01
51149;BMP280;37210;50.058;8.688;2022-08-19T04:24:37;99753.56;;;23.84
51149;BMP280;37210;50.058;8.688;2022-08-19T04:27:05;99692.22;;;23.54
51149;BMP280;37210;50.058;8.688;2022-08-19T04:29:33;99743.81;;;23.83
51149;BMP280;37210;50.058;8.688;2022-08-19T04:32:02;99663.72;;;23.55
51149;BMP280;37210;50.058;8.688;2022-08-19T04:34:32;99672.28;;;23.46
51149;BMP280;37210;50.058;8.688;2022-08-19T04:37:00;99686.13;;;23.66
51149;BMP280;37210;50.058;8.688;2022-08-19T04:39:31;99762.00;;;24.06
51149;BMP280;37210;50.058;8.688;2022-08-19T04:42:17;99755.16;;;23.72
51149;BMP280;37210;50.058;8.688;2022-08-19T04:45:04;99766.47;;;24.06
51149;BMP280;37210;50.058;8.688;2022-08-19T04:47:32;99765.31;;;24.10
51149;BMP280;37210;50.058;8.688;2022-08-19T04:50:01;99706.34;;;23.42
51149;BMP280;37210;50.058;8.688;2022-08-19T04:52:30;99752.81;;;23.96
51149;BMP280;37210;50.058;8.688;2022-08-19T04:54:58;99776.59;;;24.15
51149;BMP280;37210;50.058;8.688;2022-08-19T04:57:26;99698.16;;;23.73
51149;BMP280;37210;50.058;8.688;2022-08-19T04:59:54;99678.13;;;23.38
51149;BMP280;37210;50.058;8.688;2022-08-19T05:02:23;99751.56;;;24.02
51149;BMP280;37210;50.058;8.688;2022-08-19T05:04:51;99689.38;;;23.86
51149;BMP280;37210;50.058;8.688;2022-08-19T05:07:26;99705.84;;;23.64
51149;BMP280;37210;50.058;8.688;2022-08-19T05:09:54;99678.41;;;23.48
51149;BMP280;37210;50.058;8.688;2022-08-19T05:12:22;99773.78;;;24.02
51149;BMP280;37210;50.058;8.688;2022-08-19T05:14:50;99760.06;;;24.08
51149;BMP280;37210;50.058;8.688;2022-08-19T05:17:18;99688.13;;;23.63
51149;BMP280;37210;50.058;8.688;2022-08-19T05:19:45;99764.47;;;24.09
51149;BMP280;37210;50.058;8.688;2022-08-19T05:22:35;99772.56;;;24.36
51149;BMP280;37210;50.058;8.688;2022-08-19T05:25:05;99760.31;;;24.46
51149;BMP280;37210;50.058;8.688;2022-08-19T05:27:36;99772.81;;;24.45
51149;BMP280;37210;50.058;8.688;2022-08-19T05:30:05;99730.47;;;24.25
51149;BMP280;37210;50.058;8.688;2022-08-19T05:32:34;99787.13;;;24.58
51149;BMP280;37210;50.058;8.688;2022-08-19T05:35:03;99715.38;;;24.38
51149;BMP280;37210;50.058;8.688;2022-08-19T05:37:31;99697.84;;;23.92
51149;BMP280;37210;50.058;8.688;2022-08-19T05:40:01;99709.09;;;23.97
51149;BMP280;37210;50.058;8.688;2022-08-19T05:42:29;99785.81;;;24.37
51149;BMP280;37210;50.058;8.688;2022-08-19T05:44:57;99746.00;;;24.33
51149;BMP280;37210;50.058;8.688;2022-08-19T05:47:25;99741.25;;;24.10
51149;BMP280;37210;50.058;8.688;2022-08-19T05:49:53;99762.63;;;24.38
51149;BMP280;37210;50.058;8.688;2022-08-19T05:52:21;99753.66;;;24.25
51149;BMP280;37210;50.058;8.688;2022-08-19T05:54:51;99794.94;;;24.61
51149;BMP280;37210;50.058;8.688;2022-08-19T05:57:25;99794.34;;;24.71
51149;BMP280;37210;50.058;8.688;2022-08-19T05:59:54;99797.13;;;24.83
51149;BMP280;37210;50.058;8.688;2022-08-19T06:02:23;99787.78;;;24.62
51149;BMP280;37210;50.058;8.688;2022-08-19T06:04:50;99810.41;;;25.11
51149;BMP280;37210;50.058;8.688;2022-08-19T06:07:22;99806.97;;;25.09
51149;BMP280;37210;50.058;8.688;2022-08-19T06:09:49;99710.34;;;24.60
51149;BMP280;37210;50.058;8.688;2022-08-19T06:12:27;99754.84;;;25.15
51149;BMP280;37210;50.058;8.688;2022-08-19T06:14:57;99799.06;;;25.60
51149;BMP280;37210;50.058;8.688;2022-08-19T06:17:25;99805.31;;;25.33
51149;BMP280;37210;50.058;8.688;2022-08-19T06:19:53;99784.94;;;24.92
51149;BMP280;37210;50.058;8.688;2022-08-19T06:22:20;99805.19;;;25.62
51149;BMP280;37210;50.058;8.688;2022-08-19T06:24:54;99720.88;;;25.42
51149;BMP280;37210;50.058;8.688;2022-08-19T06:27:26;99811.91;;;26.19
51149;BMP280;37210;50.058;8.688;2022-08-19T06:29:57;99801.16;;;26.32
51149;BMP280;37210;50.058;8.688;2022-08-19T06:32:24;99787.28;;;26.50
51149;BMP280;37210;50.058;8.688;2022-08-19T06:34:54;99831.63;;;26.92
51149;BMP280;37210;50.058;8.688;2022-08-19T06:37:21;99771.69;;;26.68
51149;BMP280;37210;50.058;8.688;2022-08-19T06:39:49;99759.34;;;26.17
51149;BMP280;37210;50.058;8.688;2022-08-19T06:42:20;99853.88;;;26.69
51149;BMP280;37210;50.058;8.688;2022-08-19T06:44:48;99808.41;;;26.55
51149;BMP280;37210;50.058;8.688;2022-08-19T06:47:19;99771.28;;;26.61
51149;BMP280;37210;50.058;8.688;2022-08-19T06:49:47;99838.31;;;27.34
51149;BMP280;37210;50.058;8.688;2022-08-19T06:52:20;99750.06;;;27.06
51149;BMP280;37210;50.058;8.688;2022-08-19T06:54:47;99785.16;;;26.43
51149;BMP280;37210;50.058;8.688;2022-08-19T06:57:15;99856.31;;;27.21
51149;BMP280;37210;50.058;8.688;2022-08-19T06:59:43;99861.75;;;27.32
51149;BMP280;37210;50.058;8.688;2022-08-19T07:02:13;99859.19;;;26.94
51149;BMP280;37210;50.058;8.688;2022-08-19T07:04:41;99835.34;;;26.78
51149;BMP280;37210;50.058;8.688;2022-08-19T07:07:10;99851.50;;;26.64
51149;BMP280;37210;50.058;8.688;2022-08-19T07:09:43;99818.03;;;26.82
51149;BMP280;37210;50.058;8.688;2022-08-19T07:12:12;99798.09;;;27.45
51149;BMP280;37210;50.058;8.688;2022-08-19T07:14:42;99854.47;;;28.14
51149;BMP280;37210;50.058;8.688;2022-08-19T07:17:12;99843.88;;;27.78
51149;BMP280;37210;50.058;8.688;2022-08-19T07:19:41;99863.03;;;27.74
51149;BMP280;37210;50.058;8.688;2022-08-19T07:22:09;99849.41;;;27.06
51149;BMP280;37210;50.058;8.688;2022-08-19T07:24:37;99869.16;;;27.05
51149;BMP280;37210;50.058;8.688;2022-08-19T07:27:06;99865.38;;;27.78
51149;BMP280;37210;50.058;8.688;2022-08-19T07:29:36;99860.47;;;27.72
51149;BMP280;37210;50.058;8.688;2022-08-19T07:32:05;99841.72;;;27.94
51149;BMP280;37210;50.058;8.688;2022-08-19T07:34:34;99850.88;;;27.10
51149;BMP280;37210;50.058;8.688;2022-08-19T07:37:04;99867.22;;;27.07
51149;BMP280;37210;50.058;8.688;2022-08-19T07:39:34;99849.25;;;27.31
51149;BMP280;37210;50.058;8.688;2022-08-19T07:42:06;99871.91;;;26.54
51149;BMP280;37210;50.058;8.688;2022-08-19T07:44:36;99848.41;;;26.58
51149;BMP280;37210;50.058;8.688;2022-08-19T07:47:05;99874.34;;;26.95
51149;BMP280;37210;50.058;8.688;2022-08-19T07:49:34;99865.00;;;27.72
51149;BMP280;37210;50.058;8.688;2022-08-19T07:52:06;99873.00;;;27.13
51149;BMP280;37210;50.058;8.688;2022-08-19T07:54:37;99863.81;;;27.28
51149;BMP280;37210;50.058;8.688;2022-08-19T07:57:06;99872.09;;;28.18
51149;BMP280;37210;50.058;8.688;2022-08-19T07:59:34;99865.03;;;28.73
51149;BMP280;37210;50.058;8.688;2022-08-19T08:02:03;99871.75;;;29.00
51149;BMP280;37210;50.058;8.688;2022-08-19T08:04:31;99858.41;;;28.21
51149;BMP280;37210;50.058;8.688;2022-08-19T08:07:18;99856.66;;;27.63
51149;BMP280;37210;50.058;8.688;2022-08-19T08:10:15;99853.78;;;27.78
51149;BMP280;37210;50.058;8.688;2022-08-19T08:12:42;99871.72;;;28.01
51149;BMP280;37210;50.058;8.688;2022-08-19T08:15:13;99867.28;;;28.68
51149;BMP280;37210;50.058;8.688;2022-08-19T08:17:44;99875.25;;;28.12
51149;BMP280;37210;50.058;8.688;2022-08-19T08:20:12;99860.16;;;27.53
51149;BMP280;37210;50.058;8.688;2022-08-19T08:22:44;99828.72;;;28.56
51149;BMP280;37210;50.058;8.688;2022-08-19T08:25:30;99852.09;;;28.78
51149;BMP280;37210;50.058;8.688;2022-08-19T08:27:58;99875.47;;;27.40
51149;BMP280;37210;50.058;8.688;2022-08-19T08:30:28;99867.72;;;28.39
51149;BMP280;37210;50.058;8.688;2022-08-19T08:32:58;99871.28;;;28.95
51149;BMP280;37210;50.058;8.688;2022-08-19T08:35:26;99873.38;;;28.59
51149;BMP280;37210;50.058;8.688;2022-08-19T08:37:55;99873.31;;;27.80
51149;BMP280;37210;50.058;8.688;2022-08-19T08:40:27;99877.00;;;28.35
51149;BMP280;37210;50.058;8.688;2022-08-19T08:43:07;99838.72;;;28.87
51149;BMP280;37210;50.058;8.688;2022-08-19T08:45:44;99871.41;;;28.83
51149;BMP280;37210;50.058;8.688;2022-08-19T08:48:24;99860.16;;;27.88
51149;BMP280;37210;50.058;8.688;2022-08-19T08:51:05;99871.06;;;28.65
51149;BMP280;37210;50.058;8.688;2022-08-19T08:53:39;99852.59;;;28.72
51149;BMP280;37210;50.058;8.688;2022-08-19T08:56:09;99876.06;;;29.46
51149;BMP280;37210;50.058;8.688;2022-08-19T08:58:46;99862.50;;;29.68
51149;BMP280;37210;50.058;8.688;2022-08-19T09:01:18;99869.09;;;29.43
51149;BMP280;37210;50.058;8.688;2022-08-19T09:03:46;99854.19;;;29.39
51149;BMP280;37210;50.058;8.688;2022-08-19T09:06:30;99860.28;;;28.76
51149;BMP280;37210;50.058;8.688;2022-08-19T09:09:12;99865.50;;;28.11
51149;BMP280;37210;50.058;8.688;2022-08-19T09:11:56;99857.31;;;28.46
51149;BMP280;37210;50.058;8.688;2022-08-19T09:14:38;99865.94;;;29.27
51149;BMP280;37210;50.058;8.688;2022-08-19T09:17:12;99851.91;;;29.55
51149;BMP280;37210;50.058;8.688;2022-08-19T09:19:50;99839.13;;;30.10
51149;BMP280;37210;50.058;8.688;2022-08-19T09:22:23;99848.56;;;30.04
51149;BMP280;37210;50.058;8.688;2022-08-19T09:24:55;99854.13;;;30.02
51149;BMP280;37210;50.058;8.688;2022-08-19T09:27:24;99831.03;;;29.37
51149;BMP280;37210;50.058;8.688;2022-08-19T09:29:53;99845.50;;;28.60
51149;BMP280;37210;50.058;8.688;2022-08-19T09:32:22;99864.88;;;29.18
51149;BMP280;37210;50.058;8.688;2022-08-19T09:34:49;99850.66;;;29.91
51149;BMP280;37210;50.058;8.688;2022-08-19T09:37:20;99832.75;;;29.58
51149;BMP280;37210;50.058;8.688;2022-08-19T09:39:48;99866.53;;;29.73
51149;BMP280;37210;50.058;8.688;2022-08-19T09:42:17;99858.69;;;29.70
51149;BMP280;37210;50.058;8.688;2022-08-19T09:44:44;99823.88;;;29.78
51149;BMP280;37210;50.058;8.688;2022-08-19T09:47:13;99836.50;;;30.49
51149;BMP280;37210;50.058;8.688;2022-08-19T09:49:41;99834.13;;;30.56
51149;BMP280;37210;50.058;8.688;2022-08-19T09:52:09;99841.84;;;30.40
51149;BMP280;37210;50.058;8.688;2022-08-19T09:54:38;99802.09;;;29.91
51149;BMP280;37210;50.058;8.688;2022-08-19T09:57:06;99853.31;;;29.70
51149;BMP280;37210;50.058;8.688;2022-08-19T09:59:35;99801.81;;;29.94
51149;BMP280;37210;50.058;8.688;2022-08-19T10:02:02;99855.66;;;29.64
51149;BMP280;37210;50.058;8.688;2022-08-19T10:04:30;99853.06;;;29.94
51149;BMP280;37210;50.058;8.688;2022-08-19T10:07:13;99738.09;;;29.72
51149;BMP280;37210;50.058;8.688;2022-08-19T10:09:41;99840.09;;;30.09
51149;BMP280;37210;50.058;8.688;2022-08-19T10:12:08;99840.59;;;30.23
51149;BMP280;37210;50.058;8.688;2022-08-19T10:14:37;99849.00;;;29.79
51149;BMP280;37210;50.058;8.688;2022-08-19T10:17:05;99856.34;;;29.77
51149;BMP280;37210;50.058;8.688;2022-08-19T10:19:32;99844.06;;;29.52
51149;BMP280;37210;50.058;8.688;2022-08-19T10:22:05;99852.13;;;29.52
51149;BMP280;37210;50.058;8.688;2022-08-19T10:24:33;99809.31;;;29.70
51149;BMP280;37210;50.058;8.688;2022-08-19T10:27:01;99854.59;;;29.55
51149;BMP280;37210;50.058;8.688;2022-08-19T10:29:30;99851.38;;;29.61
51149;BMP280;37210;50.058;8.688;2022-08-19T10:32:03;99826.47;;;29.89
51149;BMP280;37210;50.058;8.688;2022-08-19T10:34:34;99846.41;;;29.77
51149;BMP280;37210;50.058;8.688;2022-08-19T10:37:03;99816.28;;;29.72
51149;BMP280;37210;50.058;8.688;2022-08-19T10:39:32;99838.44;;;30.17
51149;BMP280;37210;50.058;8.688;2022-08-19T10:42:05;99823.19;;;30.07
51149;BMP280;37210;50.058;8.688;2022-08-19T10:44:33;99830.66;;;30.44
51149;BMP280;37210;50.058;8.688;2022-08-19T10:47:03;99814.59;;;29.92
51149;BMP280;37210;50.058;8.688;2022-08-19T10:49:31;99846.41;;;29.03
51149;BMP280;37210;50.058;8.688;2022-08-19T10:52:18;99843.00;;;28.90
51149;BMP280;37210;50.058;8.688;2022-08-19T10:55:00;99805.00;;;28.61
51149;BMP280;37210;50.058;8.688;2022-08-19T10:57:45;99827.50;;;28.60
51149;BMP280;37210;50.058;8.688;2022-08-19T11:00:14;99817.56;;;29.37
51149;BMP280;37210;50.058;8.688;2022-08-19T11:02:43;99817.03;;;29.74
51149;BMP280;37210;50.058;8.688;2022-08-19T11:05:10;99805.72;;;29.80
51149;BMP280;37210;50.058;8.688;2022-08-19T11:07:38;99800.09;;;30.14
51149;BMP280;37210;50.058;8.688;2022-08-19T11:10:09;99794.06;;;30.61
51149;BMP280;37210;50.058;8.688;2022-08-19T11:12:38;99788.66;;;30.61
51149;BMP280;37210;50.058;8.688;2022-08-19T11:15:09;99808.19;;;30.14
51149;BMP280;37210;50.058;8.688;2022-08-19T11:17:37;99799.81;;;30.37
51149;BMP280;37210;50.058;8.688;2022-08-19T11:20:11;99793.81;;;29.83
51149;BMP280;37210;50.058;8.688;2022-08-19T11:22:40;99782.78;;;30.46
51149;BMP280;37210;50.058;8.688;2022-08-19T11:25:09;99736.34;;;30.43
51149;BMP280;37210;50.058;8.688;2022-08-19T11:27:40;99780.56;;;30.00
51149;BMP280;37210;50.058;8.688;2022-08-19T11:30:10;99773.53;;;29.68
51149;BMP280;37210;50.058;8.688;2022-08-19T11:32:39;99772.28;;;29.92
51149;BMP280;37210;50.058;8.688;2022-08-19T11:35:07;99729.94;;;29.83
51149;BMP280;37210;50.058;8.688;2022-08-19T11:37:38;99757.81;;;30.24
51149;BMP280;37210;50.058;8.688;2022-08-19T11:40:07;99749.69;;;30.14
51149;BMP280;37210;50.058;8.688;2022-08-19T11:42:36;99763.75;;;29.87
51149;BMP280;37210;50.058;8.688;2022-08-19T11:45:20;99765.25;;;29.60
51149;BMP280;37210;50.058;8.688;2022-08-19T11:47:48;99771.44;;;29.71
51149;BMP280;37210;50.058;8.688;2022-08-19T11:50:16;99762.38;;;29.52
51149;BMP280;37210;50.058;8.688;2022-08-19T11:52:47;99772.03;;;29.75
51149;BMP280;37210;50.058;8.688;2022-08-19T11:55:15;99759.44;;;29.44
51149;BMP280;37210;50.058;8.688;2022-08-19T11:57:42;99773.03;;;29.74
51149;BMP280;37210;50.058;8.688;2022-08-19T12:00:11;99773.53;;;30.09
51149;BMP280;37210;50.058;8.688;2022-08-19T12:02:40;99765.72;;;30.36
51149;BMP280;37210;50.058;8.688;2022-08-19T12:05:08;99759.91;;;30.41
51149;BMP280;37210;50.058;8.688;2022-08-19T12:07:36;99739.03;;;30.43
51149;BMP280;37210;50.058;8.688;2022-08-19T12:10:05;99761.72;;;30.31
51149;BMP280;37210;50.058;8.688;2022-08-19T12:12:33;99768.25;;;30.38
51149;BMP280;37210;50.058;8.688;2022-08-19T12:15:02;99746.88;;;30.55
51149;BMP280;37210;50.058;8.688;2022-08-19T12:17:29;99762.06;;;30.47
51149;BMP280;37210;50.058;8.688;2022-08-19T12:19:57;99764.59;;;30.39
51149;BMP280;37210;50.058;8.688;2022-08-19T12:22:24;99757.25;;;30.20
51149;BMP280;37210;50.058;8.688;2022-08-19T12:24:54;99756.75;;;30.06
51149;BMP280;37210;50.058;8.688;2022-08-19T12:27:23;99767.47;;;29.96
51149;BMP280;37210;50.058;8.688;2022-08-19T12:29:50;99759.34;;;30.17
51149;BMP280;37210;50.058;8.688;2022-08-19T12:32:18;99745.28;;;30.43
51149;BMP280;37210;50.058;8.688;2022-08-19T12:34:47;99720.28;;;30.41
51149;BMP280;37210;50.058;8.688;2022-08-19T12:37:14;99735.84;;;30.77
51149;BMP280;37210;50.058;8.688;2022-08-19T12:39:42;99741.38;;;30.76
51149;BMP280;37210;50.058;8.688;2022-08-19T12:42:11;99746.78;;;30.66
51149;BMP280;37210;50.058;8.688;2022-08-19T12:44:42;99742.00;;;30.89
51149;BMP280;37210;50.058;8.688;2022-08-19T12:47:12;99737.66;;;30.67
51149;BMP280;37210;50.058;8.688;2022-08-19T12:49:40;99690.97;;;30.86
51149;BMP280;37210;50.058;8.688;2022-08-19T12:52:10;99728.34;;;31.19
51149;BMP280;37210;50.058;8.688;2022-08-19T12:54:41;99743.56;;;31.11
51149;BMP280;37210;50.058;8.688;2022-08-19T12:57:10;99752.50;;;30.13
51149;BMP280;37210;50.058;8.688;2022-08-19T12:59:38;99747.09;;;30.03
51149;BMP280;37210;50.058;8.688;2022-08-19T13:02:08;99731.34;;;30.38
51149;BMP280;37210;50.058;8.688;2022-08-19T13:04:40;99732.47;;;30.36
51149;BMP280;37210;50.058;8.688;2022-08-19T13:07:07;99744.47;;;30.22
51149;BMP280;37210;50.058;8.688;2022-08-19T13:09:40;99748.47;;;30.67
51149;BMP280;37210;50.058;8.688;2022-08-19T13:12:08;99752.69;;;29.90
51149;BMP280;37210;50.058;8.688;2022-08-19T13:14:39;99715.34;;;30.16
51149;BMP280;37210;50.058;8.688;2022-08-19T13:17:11;99709.38;;;29.62
51149;BMP280;37210;50.058;8.688;2022-08-19T13:19:40;99702.09;;;29.32
51149;BMP280;37210;50.058;8.688;2022-08-19T13:22:10;99757.69;;;29.95
51149;BMP280;37210;50.058;8.688;2022-08-19T13:24:38;99757.25;;;30.20
51149;BMP280;37210;50.058;8.688;2022-08-19T13:27:07;99755.47;;;30.30
51149;BMP280;37210;50.058;8.688;2022-08-19T13:29:35;99749.44;;;30.57
51149;BMP280;37210;50.058;8.688;2022-08-19T13:32:22;99748.88;;;30.23
51149;BMP280;37210;50.058;8.688;2022-08-19T13:35:08;99743.22;;;30.26
51149;BMP280;37210;50.058;8.688;2022-08-19T13:37:36;99728.16;;;30.24
51149;BMP280;37210;50.058;8.688;2022-08-19T13:40:11;99769.34;;;30.65
51149;BMP280;37210;50.058;8.688;2022-08-19T13:42:42;99768.41;;;30.06
51149;BMP280;37210;50.058;8.688;2022-08-19T13:45:15;99780.00;;;29.97
51149;BMP280;37210;50.058;8.688;2022-08-19T13:47:47;99749.38;;;30.08
51149;BMP280;37210;50.058;8.688;2022-08-19T13:50:18;99685.53;;;29.87
51149;BMP280;37210;50.058;8.688;2022-08-19T13:52:47;99771.47;;;30.22
51149;BMP280;37210;50.058;8.688;2022-08-19T13:55:15;99741.03;;;30.41
51149;BMP280;37210;50.058;8.688;2022-08-19T13:57:43;99758.28;;;30.68
51149;BMP280;37210;50.058;8.688;2022-08-19T14:00:15;99766.91;;;30.53
51149;BMP280;37210;50.058;8.688;2022-08-19T14:02:46;99694.00;;;29.73
51149;BMP280;37210;50.058;8.688;2022-08-19T14:05:17;99773.56;;;30.19
51149;BMP280;37210;50.058;8.688;2022-08-19T14:07:46;99722.28;;;29.79
51149;BMP280;37210;50.058;8.688;2022-08-19T14:10:15;99776.19;;;29.99
51149;BMP280;37210;50.058;8.688;2022-08-19T14:12:43;99770.47;;;29.52
51149;BMP280;37210;50.058;8.688;2022-08-19T14:15:21;99778.75;;;29.60
51149;BMP280;37210;50.058;8.688;2022-08-19T14:17:51;99800.88;;;29.74
51149;BMP280;37210;50.058;8.688;2022-08-19T14:20:23;99788.47;;;29.92
51149;BMP280;37210;50.058;8.688;2022-08-19T14:22:53;99780.53;;;30.21
51149;BMP280;37210;50.058;8.688;2022-08-19T14:25:24;99779.38;;;30.14
51149;BMP280;37210;50.058;8.688;2022-08-19T14:27:55;99774.38;;;30.40